Chaska, MN (55318)

3:49 PM CDT on September 19, 2014 (GMT -0500)
Hammers Haven | Change Station
CLOSE
Current Station
Personal Weather Station
Location: Chaska, MN
Elevation: 935 ft
Nearby Weather Stations

Elev 935 ft 44.82 °N, 93.61 °W | Updated 4 minutes ago

Overcast
Overcast
75.3 °F
Feels Like 77 °F
N
0.0
Wind Variable Wind from WNW
Gusts 4.0 mph

Today
High -- | Low -- °F
--% Chance of Precip.
Yesterday
High -- | Low -- °F
Precip. -- in
6:57 AM 7:17 PM
Waning Crescent, 17% visible
Pressure 29.67 in
Visibility 10.0 miles
Clouds Overcast 4200 ft
Heat Index 77 °F
Dew Point 66 °F
Humidity 74%
Rainfall 0.00 in
Snow Depth Not available.
UV 2 out of 12
Pollen 3.10 out of 12
Ozone Good
PM2.5 Good
Flu Activity Not available.
METAR KFCM 191953Z 22015G23KT 10SM OVC042 26/17 A2968 RMK AO2 PK WND 22027/1943 SLP047 T02560167

More Conditions Fewer Conditions

Pressure 29.67 in
Visibility 10.0 miles
Clouds Overcast 4200 ft
Heat Index 77 °F
Dew Point 66 °F
Humidity 74%
Rainfall 0.00 in
Snow Depth Not available.
UV 2 out of 12
Pollen 3.10 out of 12
Ozone Good
PM2.5 Good
Flu Activity Not available.
METAR KFCM 191953Z 22015G23KT 10SM OVC042 26/17 A2968 RMK AO2 PK WND 22027/1943 SLP047 T02560167

More Conditions Fewer Conditions

10-Day Weather Forecast

Almanac

Astronomy

Sep. 19, 2014 Rise Set
Actual Time 6:57 AM CDT 7:17 PM CDT
Civil Twilight 6:28 AM CDT 7:46 PM CDT
Nautical Twilight 5:54 AM CDT 8:21 PM CDT
Astronomical Twilight 5:18 AM CDT 8:56 PM CDT
Moon 2:35 AM CDT 4:54 PM CDT
Length of Visible Light 13h 18m
Length of Day
12h 19m
Tomorrow will be 3m 6s shorter.
Waning Crescent, 17% of the Moon is Illuminated
Today
Waning Crescent
Sep 24
New
Oct 1
First Quarter
Oct 8
Full
Oct 15
Last Quarter

Today's Extremes

State Highs State Lows

Community

WunderPhotos

Upload Photos

1,754,695 photos uploaded!

WunderBlogs® & News

By Dr. Jeff Masters
Director of Meteorology, Weather Underground
By Kari Strenfel
Meteorologist, Weather Underground
By Christopher C. Burt
Weather Historian, Weather Underground
September 19, 2014
September 19, 2014
September 19, 2014

Nearby

Air Quality

  Air Quality AQ Index Pollutant
Yesterday Good
OZONE
Yesterday Good
PM2.5
Current Good
PM2.5
Current Good
OZONE
Friday Good
PM2.5
Friday Good
OZONE
Saturday Good
OZONE
Saturday Good
PM2.5
Sunday Good
OZONE
Sunday Good
PM2.5
Monday Good
OZONE
Monday Good
PM2.5
Tuesday Good
OZONE
Tuesday Good
PM2.5
Wednesday Good
PM2.5
Wednesday Good
OZONE

Snow Depth

Station Depth Elevation
No new snow has been reported.

Earthquake Activity

City Distance Mag. Time & Date
No recent earthquake activity has been reported nearby.
Minimum magnitude displayed is 2.5.

Coastal Water Temperatures

Place Temperature
No Stations Reporting

Nearby Weather Stations